MBA Airport (Manokotak) Information

FAA: MBA - ICAO: PAMB

MBA Airport Location

State Alaska
County Dillingham
City Manokotak
MBA Airport is 6 miles east-southeast of Manokotak, AK.
Latitude 58-55-55.4000N
Longitude 158-54-06.8000W
Elevation 106ft

PAMB Airport METARs

METAR PAMB 031956Z AUTO 00000KT 4SM HZ CLR 06/02 A3025 RMK AO2 SLP247 T00610017 $
Altimeter 30.25"
Temperature 6.1°C (43.0°F)
Wind 0° at 0KT
Clouds Skies are clear.
Visibility 4.0mi
Time observed: 2023-10-03T19:56:00Z

MBA Airport Details

Status Operational
Activation August 1971
Ownership Public
Usage Public
Chart KODIAK
ATC on-site No
Beacon schedule N/A
Beacon color clear green

MBA Airport Contacts

Owner ALASKA DOT&PF CENTRAL REGION
Owner address PO BOX 196900, ANCHORAGE, AK 99519-6900
Owner phone 907-269-0749
Manager SUPERVISOR OPERATIONS SUPPPORT
Manager address CONOCO PHILLIPS ALASKA INC., PO BOX 100360, ANCHORAGE, AK 99501-0360
Manager phone 907-659-7448

MBA Airport (Manokotak) Radio Frequencies

MBA (Airport) Radio Frequencies

UNICOM N/A
Common traffic advisory frequency (CTAF) 122.9